sensor_id;sensor_type;location;lat;lon;timestamp;P1;durP1;ratioP1;P2;durP2;ratioP2
74223;SDS011;62585;49.706;18.216;2023-10-19T00:00:33;9.68;;;7.25;;
74223;SDS011;62585;49.706;18.216;2023-10-19T00:03:19;15.02;;;8.10;;
74223;SDS011;62585;49.706;18.216;2023-10-19T00:05:45;12.88;;;6.88;;
74223;SDS011;62585;49.706;18.216;2023-10-19T00:08:12;13.77;;;7.65;;
74223;SDS011;62585;49.706;18.216;2023-10-19T00:10:39;14.43;;;7.22;;
74223;SDS011;62585;49.706;18.216;2023-10-19T00:13:09;12.20;;;7.47;;
74223;SDS011;62585;49.706;18.216;2023-10-19T00:15:41;17.98;;;8.57;;
74223;SDS011;62585;49.706;18.216;2023-10-19T00:18:15;14.20;;;7.40;;
74223;SDS011;62585;49.706;18.216;2023-10-19T00:20:41;13.20;;;8.30;;
74223;SDS011;62585;49.706;18.216;2023-10-19T00:23:11;10.68;;;5.88;;
74223;SDS011;62585;49.706;18.216;2023-10-19T00:25:39;14.07;;;7.20;;
74223;SDS011;62585;49.706;18.216;2023-10-19T00:30:32;12.40;;;7.38;;
74223;SDS011;62585;49.706;18.216;2023-10-19T00:33:01;14.63;;;6.95;;
74223;SDS011;62585;49.706;18.216;2023-10-19T00:35:41;16.65;;;7.63;;
74223;SDS011;62585;49.706;18.216;2023-10-19T00:38:32;13.02;;;7.72;;
74223;SDS011;62585;49.706;18.216;2023-10-19T00:40:59;13.30;;;8.30;;
74223;SDS011;62585;49.706;18.216;2023-10-19T00:43:41;13.50;;;7.53;;
74223;SDS011;62585;49.706;18.216;2023-10-19T00:46:11;14.02;;;7.75;;
74223;SDS011;62585;49.706;18.216;2023-10-19T00:48:50;11.30;;;6.75;;
74223;SDS011;62585;49.706;18.216;2023-10-19T00:51:27;15.63;;;8.27;;
74223;SDS011;62585;49.706;18.216;2023-10-19T00:54:14;15.27;;;7.82;;
74223;SDS011;62585;49.706;18.216;2023-10-19T00:56:47;15.57;;;8.02;;
74223;SDS011;62585;49.706;18.216;2023-10-19T00:59:23;17.05;;;7.95;;
74223;SDS011;62585;49.706;18.216;2023-10-19T01:01:53;16.02;;;8.55;;
74223;SDS011;62585;49.706;18.216;2023-10-19T01:04:23;14.35;;;7.88;;
74223;SDS011;62585;49.706;18.216;2023-10-19T01:06:50;18.10;;;8.95;;
74223;SDS011;62585;49.706;18.216;2023-10-19T01:09:35;19.73;;;10.18;;
74223;SDS011;62585;49.706;18.216;2023-10-19T01:12:02;15.68;;;8.80;;
74223;SDS011;62585;49.706;18.216;2023-10-19T01:15:00;18.60;;;8.60;;
74223;SDS011;62585;49.706;18.216;2023-10-19T01:17:53;11.27;;;6.82;;
74223;SDS011;62585;49.706;18.216;2023-10-19T01:22:56;9.20;;;6.75;;
74223;SDS011;62585;49.706;18.216;2023-10-19T01:28:24;13.30;;;7.50;;
74223;SDS011;62585;49.706;18.216;2023-10-19T01:31:17;12.02;;;6.38;;
74223;SDS011;62585;49.706;18.216;2023-10-19T01:33:48;11.18;;;6.85;;
74223;SDS011;62585;49.706;18.216;2023-10-19T01:36:14;11.45;;;7.18;;
74223;SDS011;62585;49.706;18.216;2023-10-19T01:38:41;10.65;;;7.00;;
74223;SDS011;62585;49.706;18.216;2023-10-19T01:41:08;12.32;;;6.90;;
74223;SDS011;62585;49.706;18.216;2023-10-19T01:43:47;13.10;;;6.32;;
74223;SDS011;62585;49.706;18.216;2023-10-19T01:46:14;13.90;;;6.97;;
74223;SDS011;62585;49.706;18.216;2023-10-19T01:48:51;14.25;;;7.93;;
74223;SDS011;62585;49.706;18.216;2023-10-19T01:51:20;14.60;;;8.02;;
74223;SDS011;62585;49.706;18.216;2023-10-19T01:53:49;12.98;;;7.88;;
74223;SDS011;62585;49.706;18.216;2023-10-19T01:56:15;16.42;;;8.57;;
74223;SDS011;62585;49.706;18.216;2023-10-19T01:58:43;15.45;;;9.15;;
74223;SDS011;62585;49.706;18.216;2023-10-19T02:01:12;16.65;;;8.35;;
74223;SDS011;62585;49.706;18.216;2023-10-19T02:06:10;14.77;;;6.90;;
74223;SDS011;62585;49.706;18.216;2023-10-19T02:08:45;12.98;;;7.50;;
74223;SDS011;62585;49.706;18.216;2023-10-19T02:14:00;14.55;;;7.18;;
74223;SDS011;62585;49.706;18.216;2023-10-19T02:16:30;11.43;;;6.40;;
74223;SDS011;62585;49.706;18.216;2023-10-19T02:18:58;11.30;;;7.55;;
74223;SDS011;62585;49.706;18.216;2023-10-19T02:21:24;14.18;;;7.03;;
74223;SDS011;62585;49.706;18.216;2023-10-19T02:23:56;14.95;;;7.28;;
74223;SDS011;62585;49.706;18.216;2023-10-19T02:26:23;12.82;;;6.88;;
74223;SDS011;62585;49.706;18.216;2023-10-19T02:28:52;11.05;;;6.55;;
74223;SDS011;62585;49.706;18.216;2023-10-19T02:31:19;10.13;;;5.97;;
74223;SDS011;62585;49.706;18.216;2023-10-19T02:33:50;14.82;;;8.60;;
74223;SDS011;62585;49.706;18.216;2023-10-19T02:36:28;11.48;;;6.53;;
74223;SDS011;62585;49.706;18.216;2023-10-19T02:41:24;11.25;;;6.47;;
74223;SDS011;62585;49.706;18.216;2023-10-19T02:43:55;14.38;;;6.28;;
74223;SDS011;62585;49.706;18.216;2023-10-19T02:46:48;15.18;;;7.05;;
74223;SDS011;62585;49.706;18.216;2023-10-19T02:49:23;9.90;;;6.15;;
74223;SDS011;62585;49.706;18.216;2023-10-19T02:51:51;12.20;;;6.68;;
74223;SDS011;62585;49.706;18.216;2023-10-19T02:54:19;12.57;;;6.80;;
74223;SDS011;62585;49.706;18.216;2023-10-19T02:56:50;16.60;;;7.55;;
74223;SDS011;62585;49.706;18.216;2023-10-19T02:59:19;13.15;;;7.43;;
74223;SDS011;62585;49.706;18.216;2023-10-19T03:01:52;16.45;;;8.82;;
74223;SDS011;62585;49.706;18.216;2023-10-19T03:04:26;13.23;;;8.35;;
74223;SDS011;62585;49.706;18.216;2023-10-19T03:06:54;15.60;;;8.63;;
74223;SDS011;62585;49.706;18.216;2023-10-19T03:09:21;14.63;;;8.20;;
74223;SDS011;62585;49.706;18.216;2023-10-19T03:11:54;14.98;;;8.43;;
74223;SDS011;62585;49.706;18.216;2023-10-19T03:14:30;10.52;;;7.78;;
74223;SDS011;62585;49.706;18.216;2023-10-19T03:16:57;18.92;;;8.55;;
74223;SDS011;62585;49.706;18.216;2023-10-19T03:19:24;13.85;;;8.15;;
74223;SDS011;62585;49.706;18.216;2023-10-19T03:21:51;13.63;;;7.78;;
74223;SDS011;62585;49.706;18.216;2023-10-19T03:24:18;15.95;;;9.43;;
74223;SDS011;62585;49.706;18.216;2023-10-19T03:27:04;14.15;;;8.23;;
74223;SDS011;62585;49.706;18.216;2023-10-19T03:29:49;16.38;;;8.30;;
74223;SDS011;62585;49.706;18.216;2023-10-19T03:32:22;15.13;;;8.45;;
74223;SDS011;62585;49.706;18.216;2023-10-19T03:34:52;11.63;;;7.68;;
74223;SDS011;62585;49.706;18.216;2023-10-19T03:37:22;18.40;;;8.77;;
74223;SDS011;62585;49.706;18.216;2023-10-19T03:39:50;17.13;;;9.95;;
74223;SDS011;62585;49.706;18.216;2023-10-19T03:42:17;16.55;;;8.93;;
74223;SDS011;62585;49.706;18.216;2023-10-19T03:44:43;13.80;;;8.35;;
74223;SDS011;62585;49.706;18.216;2023-10-19T03:47:15;17.85;;;9.73;;
74223;SDS011;62585;49.706;18.216;2023-10-19T03:49:45;16.55;;;7.80;;
74223;SDS011;62585;49.706;18.216;2023-10-19T03:52:12;17.35;;;9.20;;
74223;SDS011;62585;49.706;18.216;2023-10-19T03:54:39;17.73;;;9.63;;
74223;SDS011;62585;49.706;18.216;2023-10-19T03:57:06;19.10;;;9.70;;
74223;SDS011;62585;49.706;18.216;2023-10-19T03:59:44;14.88;;;9.23;;
74223;SDS011;62585;49.706;18.216;2023-10-19T04:02:11;18.63;;;10.05;;
74223;SDS011;62585;49.706;18.216;2023-10-19T04:04:44;18.17;;;9.55;;
74223;SDS011;62585;49.706;18.216;2023-10-19T04:07:14;14.93;;;10.40;;
74223;SDS011;62585;49.706;18.216;2023-10-19T04:09:52;21.60;;;10.50;;
74223;SDS011;62585;49.706;18.216;2023-10-19T04:12:34;19.60;;;9.35;;
74223;SDS011;62585;49.706;18.216;2023-10-19T04:15:02;17.08;;;9.00;;
74223;SDS011;62585;49.706;18.216;2023-10-19T04:17:52;15.25;;;8.60;;
74223;SDS011;62585;49.706;18.216;2023-10-19T04:20:20;18.60;;;9.30;;
74223;SDS011;62585;49.706;18.216;2023-10-19T04:23:01;16.50;;;9.32;;
74223;SDS011;62585;49.706;18.216;2023-10-19T04:25:36;16.27;;;9.18;;
74223;SDS011;62585;49.706;18.216;2023-10-19T04:28:02;22.88;;;10.40;;
74223;SDS011;62585;49.706;18.216;2023-10-19T04:30:30;17.58;;;10.38;;
74223;SDS011;62585;49.706;18.216;2023-10-19T04:32:58;19.90;;;10.32;;
74223;SDS011;62585;49.706;18.216;2023-10-19T04:35:26;20.77;;;10.65;;
74223;SDS011;62585;49.706;18.216;2023-10-19T04:37:56;18.27;;;10.65;;
74223;SDS011;62585;49.706;18.216;2023-10-19T04:40:22;16.08;;;9.95;;
74223;SDS011;62585;49.706;18.216;2023-10-19T04:42:52;14.95;;;9.73;;
74223;SDS011;62585;49.706;18.216;2023-10-19T04:45:18;15.35;;;9.32;;
74223;SDS011;62585;49.706;18.216;2023-10-19T04:47:45;14.32;;;8.90;;
74223;SDS011;62585;49.706;18.216;2023-10-19T04:50:11;17.10;;;9.43;;
74223;SDS011;62585;49.706;18.216;2023-10-19T04:52:38;16.63;;;9.00;;
74223;SDS011;62585;49.706;18.216;2023-10-19T04:55:04;15.82;;;9.63;;
74223;SDS011;62585;49.706;18.216;2023-10-19T04:57:31;19.35;;;10.77;;
74223;SDS011;62585;49.706;18.216;2023-10-19T04:59:57;15.23;;;9.75;;
74223;SDS011;62585;49.706;18.216;2023-10-19T05:02:23;18.58;;;10.57;;
74223;SDS011;62585;49.706;18.216;2023-10-19T05:04:49;17.73;;;9.63;;
74223;SDS011;62585;49.706;18.216;2023-10-19T05:07:15;18.80;;;9.27;;
74223;SDS011;62585;49.706;18.216;2023-10-19T05:09:44;18.08;;;9.93;;
74223;SDS011;62585;49.706;18.216;2023-10-19T05:12:11;16.63;;;8.60;;
74223;SDS011;62585;49.706;18.216;2023-10-19T05:14:39;18.45;;;10.40;;
74223;SDS011;62585;49.706;18.216;2023-10-19T05:17:07;20.42;;;11.38;;
74223;SDS011;62585;49.706;18.216;2023-10-19T05:19:37;14.70;;;10.02;;
74223;SDS011;62585;49.706;18.216;2023-10-19T05:22:05;19.13;;;9.98;;
74223;SDS011;62585;49.706;18.216;2023-10-19T05:24:32;16.08;;;9.48;;
74223;SDS011;62585;49.706;18.216;2023-10-19T05:26:58;16.38;;;10.57;;
74223;SDS011;62585;49.706;18.216;2023-10-19T05:29:24;19.63;;;10.65;;
74223;SDS011;62585;49.706;18.216;2023-10-19T05:31:51;15.85;;;10.32;;
74223;SDS011;62585;49.706;18.216;2023-10-19T05:34:25;15.45;;;10.02;;
74223;SDS011;62585;49.706;18.216;2023-10-19T05:37:01;20.42;;;11.18;;
74223;SDS011;62585;49.706;18.216;2023-10-19T05:39:30;18.13;;;11.50;;
74223;SDS011;62585;49.706;18.216;2023-10-19T05:41:57;15.75;;;10.20;;
74223;SDS011;62585;49.706;18.216;2023-10-19T05:44:28;18.70;;;11.20;;
74223;SDS011;62585;49.706;18.216;2023-10-19T05:46:56;18.00;;;10.80;;
74223;SDS011;62585;49.706;18.216;2023-10-19T05:49:23;22.17;;;12.15;;
74223;SDS011;62585;49.706;18.216;2023-10-19T05:51:50;18.45;;;10.25;;
74223;SDS011;62585;49.706;18.216;2023-10-19T05:54:16;18.95;;;12.27;;
74223;SDS011;62585;49.706;18.216;2023-10-19T05:56:42;21.92;;;10.93;;
74223;SDS011;62585;49.706;18.216;2023-10-19T05:59:08;19.23;;;10.68;;
74223;SDS011;62585;49.706;18.216;2023-10-19T06:01:36;20.75;;;10.70;;
74223;SDS011;62585;49.706;18.216;2023-10-19T06:04:05;19.17;;;11.13;;
74223;SDS011;62585;49.706;18.216;2023-10-19T06:06:31;22.83;;;12.68;;
74223;SDS011;62585;49.706;18.216;2023-10-19T06:08:56;20.25;;;10.95;;
74223;SDS011;62585;49.706;18.216;2023-10-19T06:11:22;19.55;;;11.95;;
74223;SDS011;62585;49.706;18.216;2023-10-19T06:13:48;23.80;;;12.43;;
74223;SDS011;62585;49.706;18.216;2023-10-19T06:16:14;18.42;;;12.32;;
74223;SDS011;62585;49.706;18.216;2023-10-19T06:18:40;17.85;;;11.18;;
74223;SDS011;62585;49.706;18.216;2023-10-19T06:21:08;20.98;;;12.10;;
74223;SDS011;62585;49.706;18.216;2023-10-19T06:23:35;20.15;;;12.50;;
74223;SDS011;62585;49.706;18.216;2023-10-19T06:26:08;22.67;;;12.68;;
74223;SDS011;62585;49.706;18.216;2023-10-19T06:28:38;20.92;;;12.02;;
74223;SDS011;62585;49.706;18.216;2023-10-19T06:31:06;21.35;;;13.32;;
74223;SDS011;62585;49.706;18.216;2023-10-19T06:33:32;20.85;;;12.18;;
74223;SDS011;62585;49.706;18.216;2023-10-19T06:35:59;25.45;;;11.88;;
74223;SDS011;62585;49.706;18.216;2023-10-19T06:38:26;21.33;;;12.95;;
74223;SDS011;62585;49.706;18.216;2023-10-19T06:40:52;19.00;;;12.02;;
74223;SDS011;62585;49.706;18.216;2023-10-19T06:43:18;21.83;;;11.65;;
74223;SDS011;62585;49.706;18.216;2023-10-19T06:45:46;20.33;;;10.18;;
74223;SDS011;62585;49.706;18.216;2023-10-19T06:48:12;25.33;;;13.93;;
74223;SDS011;62585;49.706;18.216;2023-10-19T06:50:38;24.75;;;13.13;;
74223;SDS011;62585;49.706;18.216;2023-10-19T06:53:05;24.25;;;14.02;;
74223;SDS011;62585;49.706;18.216;2023-10-19T06:55:31;20.92;;;12.40;;
74223;SDS011;62585;49.706;18.216;2023-10-19T06:57:56;19.90;;;11.93;;
74223;SDS011;62585;49.706;18.216;2023-10-19T07:00:23;23.10;;;11.00;;
74223;SDS011;62585;49.706;18.216;2023-10-19T07:02:53;23.40;;;10.20;;
74223;SDS011;62585;49.706;18.216;2023-10-19T07:05:21;18.38;;;10.80;;
74223;SDS011;62585;49.706;18.216;2023-10-19T07:07:50;21.80;;;11.23;;
74223;SDS011;62585;49.706;18.216;2023-10-19T07:10:17;23.15;;;12.60;;
74223;SDS011;62585;49.706;18.216;2023-10-19T07:12:45;20.95;;;12.15;;
74223;SDS011;62585;49.706;18.216;2023-10-19T07:15:12;21.70;;;12.07;;
74223;SDS011;62585;49.706;18.216;2023-10-19T07:17:42;18.63;;;11.48;;
74223;SDS011;62585;49.706;18.216;2023-10-19T07:20:09;20.55;;;11.35;;
74223;SDS011;62585;49.706;18.216;2023-10-19T07:22:51;24.45;;;12.00;;
74223;SDS011;62585;49.706;18.216;2023-10-19T07:25:18;22.70;;;13.32;;
74223;SDS011;62585;49.706;18.216;2023-10-19T07:27:49;22.58;;;12.55;;
74223;SDS011;62585;49.706;18.216;2023-10-19T07:30:19;21.67;;;11.52;;
74223;SDS011;62585;49.706;18.216;2023-10-19T07:32:49;20.80;;;12.02;;
74223;SDS011;62585;49.706;18.216;2023-10-19T07:35:25;20.98;;;12.95;;
74223;SDS011;62585;49.706;18.216;2023-10-19T07:37:52;24.02;;;12.45;;
74223;SDS011;62585;49.706;18.216;2023-10-19T07:40:18;23.30;;;12.23;;
74223;SDS011;62585;49.706;18.216;2023-10-19T07:42:44;19.30;;;11.65;;
74223;SDS011;62585;49.706;18.216;2023-10-19T07:45:12;20.05;;;13.38;;
74223;SDS011;62585;49.706;18.216;2023-10-19T07:47:38;24.80;;;13.63;;
74223;SDS011;62585;49.706;18.216;2023-10-19T07:50:11;24.55;;;12.18;;
74223;SDS011;62585;49.706;18.216;2023-10-19T07:52:50;25.58;;;13.80;;
74223;SDS011;62585;49.706;18.216;2023-10-19T07:55:20;24.08;;;12.70;;
74223;SDS011;62585;49.706;18.216;2023-10-19T07:57:51;23.25;;;12.32;;
74223;SDS011;62585;49.706;18.216;2023-10-19T08:00:19;18.73;;;11.75;;
74223;SDS011;62585;49.706;18.216;2023-10-19T08:02:45;23.50;;;12.48;;
74223;SDS011;62585;49.706;18.216;2023-10-19T08:05:15;24.52;;;13.85;;
74223;SDS011;62585;49.706;18.216;2023-10-19T08:07:43;21.50;;;12.43;;
74223;SDS011;62585;49.706;18.216;2023-10-19T08:10:13;24.58;;;14.02;;
74223;SDS011;62585;49.706;18.216;2023-10-19T08:12:44;24.63;;;13.80;;
74223;SDS011;62585;49.706;18.216;2023-10-19T08:15:24;22.33;;;13.13;;
74223;SDS011;62585;49.706;18.216;2023-10-19T08:17:51;21.17;;;13.50;;
74223;SDS011;62585;49.706;18.216;2023-10-19T08:20:19;21.63;;;13.23;;
74223;SDS011;62585;49.706;18.216;2023-10-19T08:22:57;21.25;;;12.15;;
74223;SDS011;62585;49.706;18.216;2023-10-19T08:25:26;19.58;;;11.43;;
74223;SDS011;62585;49.706;18.216;2023-10-19T08:27:52;23.48;;;12.95;;
74223;SDS011;62585;49.706;18.216;2023-10-19T08:30:22;23.50;;;12.18;;
74223;SDS011;62585;49.706;18.216;2023-10-19T08:32:49;23.45;;;14.45;;
74223;SDS011;62585;49.706;18.216;2023-10-19T08:35:17;22.52;;;14.90;;
74223;SDS011;62585;49.706;18.216;2023-10-19T08:37:51;23.83;;;14.48;;
74223;SDS011;62585;49.706;18.216;2023-10-19T08:40:24;27.27;;;13.23;;
74223;SDS011;62585;49.706;18.216;2023-10-19T08:42:52;25.90;;;14.35;;
74223;SDS011;62585;49.706;18.216;2023-10-19T08:45:19;25.55;;;14.35;;
74223;SDS011;62585;49.706;18.216;2023-10-19T08:50:27;28.00;;;15.23;;
74223;SDS011;62585;49.706;18.216;2023-10-19T08:52:55;28.92;;;14.20;;
74223;SDS011;62585;49.706;18.216;2023-10-19T08:55:25;25.05;;;14.63;;
74223;SDS011;62585;49.706;18.216;2023-10-19T08:57:51;28.45;;;15.63;;
74223;SDS011;62585;49.706;18.216;2023-10-19T09:00:18;29.17;;;16.85;;
74223;SDS011;62585;49.706;18.216;2023-10-19T09:02:47;25.83;;;15.10;;
74223;SDS011;62585;49.706;18.216;2023-10-19T09:05:14;31.13;;;15.57;;
74223;SDS011;62585;49.706;18.216;2023-10-19T09:07:54;29.20;;;15.18;;
74223;SDS011;62585;49.706;18.216;2023-10-19T09:10:27;23.73;;;14.43;;
74223;SDS011;62585;49.706;18.216;2023-10-19T09:13:03;25.02;;;14.82;;
74223;SDS011;62585;49.706;18.216;2023-10-19T09:15:33;27.05;;;14.85;;
74223;SDS011;62585;49.706;18.216;2023-10-19T09:20:43;28.23;;;15.73;;
74223;SDS011;62585;49.706;18.216;2023-10-19T09:23:27;26.73;;;16.38;;
74223;SDS011;62585;49.706;18.216;2023-10-19T09:25:55;28.45;;;16.55;;
74223;SDS011;62585;49.706;18.216;2023-10-19T09:28:22;29.60;;;16.42;;
74223;SDS011;62585;49.706;18.216;2023-10-19T09:30:49;24.75;;;15.23;;
74223;SDS011;62585;49.706;18.216;2023-10-19T09:33:19;27.00;;;15.32;;
74223;SDS011;62585;49.706;18.216;2023-10-19T09:35:48;26.25;;;15.13;;
74223;SDS011;62585;49.706;18.216;2023-10-19T09:38:15;26.90;;;15.93;;
74223;SDS011;62585;49.706;18.216;2023-10-19T09:40:42;27.17;;;15.40;;
74223;SDS011;62585;49.706;18.216;2023-10-19T09:43:09;30.02;;;15.82;;
74223;SDS011;62585;49.706;18.216;2023-10-19T09:45:47;26.58;;;15.52;;
74223;SDS011;62585;49.706;18.216;2023-10-19T09:48:19;30.40;;;16.67;;
74223;SDS011;62585;49.706;18.216;2023-10-19T09:50:48;35.60;;;16.45;;
74223;SDS011;62585;49.706;18.216;2023-10-19T09:53:22;29.83;;;17.77;;
74223;SDS011;62585;49.706;18.216;2023-10-19T09:55:51;36.35;;;17.73;;
74223;SDS011;62585;49.706;18.216;2023-10-19T09:58:23;31.13;;;17.73;;
74223;SDS011;62585;49.706;18.216;2023-10-19T10:00:57;33.63;;;17.83;;
74223;SDS011;62585;49.706;18.216;2023-10-19T10:03:41;31.65;;;16.95;;
74223;SDS011;62585;49.706;18.216;2023-10-19T10:06:11;29.13;;;16.67;;
74223;SDS011;62585;49.706;18.216;2023-10-19T10:08:39;28.55;;;18.05;;
74223;SDS011;62585;49.706;18.216;2023-10-19T10:11:17;29.15;;;15.85;;
74223;SDS011;62585;49.706;18.216;2023-10-19T10:13:45;23.30;;;12.82;;
74223;SDS011;62585;49.706;18.216;2023-10-19T10:16:20;20.77;;;12.23;;
74223;SDS011;62585;49.706;18.216;2023-10-19T10:18:48;28.42;;;12.90;;
74223;SDS011;62585;49.706;18.216;2023-10-19T10:23:52;22.75;;;12.10;;
74223;SDS011;62585;49.706;18.216;2023-10-19T10:26:21;21.23;;;11.73;;
74223;SDS011;62585;49.706;18.216;2023-10-19T10:29:08;20.20;;;11.98;;
74223;SDS011;62585;49.706;18.216;2023-10-19T10:31:41;23.17;;;11.85;;
74223;SDS011;62585;49.706;18.216;2023-10-19T10:34:10;22.20;;;11.65;;
74223;SDS011;62585;49.706;18.216;2023-10-19T10:36:57;23.05;;;12.05;;
74223;SDS011;62585;49.706;18.216;2023-10-19T10:39:27;20.52;;;11.02;;
74223;SDS011;62585;49.706;18.216;2023-10-19T10:41:56;20.15;;;11.60;;
74223;SDS011;62585;49.706;18.216;2023-10-19T10:44:35;23.08;;;12.02;;
74223;SDS011;62585;49.706;18.216;2023-10-19T10:47:05;19.50;;;11.45;;
74223;SDS011;62585;49.706;18.216;2023-10-19T10:49:50;17.95;;;10.73;;
74223;SDS011;62585;49.706;18.216;2023-10-19T10:52:30;17.73;;;9.98;;
74223;SDS011;62585;49.706;18.216;2023-10-19T10:55:10;18.63;;;10.32;;
74223;SDS011;62585;49.706;18.216;2023-10-19T10:57:37;20.15;;;10.52;;
74223;SDS011;62585;49.706;18.216;2023-10-19T11:02:45;20.63;;;10.77;;
74223;SDS011;62585;49.706;18.216;2023-10-19T11:05:13;21.40;;;10.35;;
74223;SDS011;62585;49.706;18.216;2023-10-19T11:07:40;17.48;;;10.57;;
74223;SDS011;62585;49.706;18.216;2023-10-19T11:10:07;16.08;;;9.10;;
74223;SDS011;62585;49.706;18.216;2023-10-19T11:12:35;19.35;;;11.13;;
74223;SDS011;62585;49.706;18.216;2023-10-19T11:15:02;17.05;;;9.60;;
74223;SDS011;62585;49.706;18.216;2023-10-19T11:17:42;15.60;;;9.70;;
74223;SDS011;62585;49.706;18.216;2023-10-19T11:22:47;14.57;;;9.05;;
74223;SDS011;62585;49.706;18.216;2023-10-19T11:25:28;16.80;;;9.35;;
74223;SDS011;62585;49.706;18.216;2023-10-19T11:27:55;22.77;;;9.98;;
74223;SDS011;62585;49.706;18.216;2023-10-19T11:30:31;21.13;;;10.52;;
74223;SDS011;62585;49.706;18.216;2023-10-19T11:32:57;16.77;;;9.93;;
74223;SDS011;62585;49.706;18.216;2023-10-19T11:35:25;17.58;;;9.30;;
74223;SDS011;62585;49.706;18.216;2023-10-19T11:37:53;19.52;;;10.50;;
74223;SDS011;62585;49.706;18.216;2023-10-19T11:40:20;17.33;;;10.30;;
74223;SDS011;62585;49.706;18.216;2023-10-19T11:42:48;19.27;;;10.10;;
74223;SDS011;62585;49.706;18.216;2023-10-19T11:45:14;19.23;;;10.00;;
74223;SDS011;62585;49.706;18.216;2023-10-19T11:47:42;18.90;;;10.50;;
74223;SDS011;62585;49.706;18.216;2023-10-19T11:50:10;16.83;;;9.73;;
74223;SDS011;62585;49.706;18.216;2023-10-19T11:52:41;19.95;;;10.30;;
74223;SDS011;62585;49.706;18.216;2023-10-19T11:55:08;25.70;;;14.48;;
74223;SDS011;62585;49.706;18.216;2023-10-19T11:57:34;18.17;;;9.23;;
74223;SDS011;62585;49.706;18.216;2023-10-19T12:00:02;18.13;;;9.10;;
74223;SDS011;62585;49.706;18.216;2023-10-19T12:02:35;18.40;;;10.27;;
74223;SDS011;62585;49.706;18.216;2023-10-19T12:05:03;16.45;;;8.70;;
74223;SDS011;62585;49.706;18.216;2023-10-19T12:07:38;16.80;;;9.43;;
74223;SDS011;62585;49.706;18.216;2023-10-19T12:10:05;17.42;;;9.10;;
74223;SDS011;62585;49.706;18.216;2023-10-19T12:12:34;12.88;;;7.70;;
74223;SDS011;62585;49.706;18.216;2023-10-19T12:15:00;17.50;;;9.65;;
74223;SDS011;62585;49.706;18.216;2023-10-19T12:17:28;17.42;;;8.98;;
74223;SDS011;62585;49.706;18.216;2023-10-19T12:22:21;12.25;;;7.53;;
74223;SDS011;62585;49.706;18.216;2023-10-19T12:24:47;13.63;;;7.82;;
74223;SDS011;62585;49.706;18.216;2023-10-19T12:27:14;12.15;;;7.88;;
74223;SDS011;62585;49.706;18.216;2023-10-19T12:29:40;13.93;;;7.38;;
74223;SDS011;62585;49.706;18.216;2023-10-19T12:32:06;15.98;;;8.38;;
74223;SDS011;62585;49.706;18.216;2023-10-19T12:34:32;13.57;;;8.45;;
74223;SDS011;62585;49.706;18.216;2023-10-19T12:36:58;14.00;;;8.57;;
74223;SDS011;62585;49.706;18.216;2023-10-19T12:39:24;13.20;;;7.90;;
74223;SDS011;62585;49.706;18.216;2023-10-19T12:42:10;15.88;;;8.18;;
74223;SDS011;62585;49.706;18.216;2023-10-19T12:44:36;13.23;;;7.70;;
74223;SDS011;62585;49.706;18.216;2023-10-19T12:47:07;15.80;;;8.48;;
74223;SDS011;62585;49.706;18.216;2023-10-19T12:49:41;16.30;;;9.45;;
74223;SDS011;62585;49.706;18.216;2023-10-19T12:52:08;12.60;;;7.63;;
74223;SDS011;62585;49.706;18.216;2023-10-19T12:54:34;15.02;;;7.90;;
74223;SDS011;62585;49.706;18.216;2023-10-19T12:59:29;12.32;;;7.15;;
74223;SDS011;62585;49.706;18.216;2023-10-19T13:01:56;12.32;;;7.95;;
74223;SDS011;62585;49.706;18.216;2023-10-19T13:04:24;11.68;;;7.32;;
74223;SDS011;62585;49.706;18.216;2023-10-19T13:06:51;14.23;;;8.73;;
74223;SDS011;62585;49.706;18.216;2023-10-19T13:09:18;15.40;;;8.13;;
74223;SDS011;62585;49.706;18.216;2023-10-19T13:11:57;12.75;;;8.27;;
74223;SDS011;62585;49.706;18.216;2023-10-19T13:14:23;12.60;;;8.10;;
74223;SDS011;62585;49.706;18.216;2023-10-19T13:16:50;13.65;;;8.18;;
74223;SDS011;62585;49.706;18.216;2023-10-19T13:19:16;14.90;;;9.25;;
74223;SDS011;62585;49.706;18.216;2023-10-19T13:21:50;12.20;;;7.22;;
74223;SDS011;62585;49.706;18.216;2023-10-19T13:24:17;13.30;;;7.78;;
74223;SDS011;62585;49.706;18.216;2023-10-19T13:26:49;11.57;;;7.13;;
74223;SDS011;62585;49.706;18.216;2023-10-19T13:29:16;15.30;;;7.55;;
74223;SDS011;62585;49.706;18.216;2023-10-19T13:31:43;15.23;;;8.07;;
74223;SDS011;62585;49.706;18.216;2023-10-19T13:34:17;11.82;;;7.38;;
74223;SDS011;62585;49.706;18.216;2023-10-19T13:36:43;12.70;;;6.70;;
74223;SDS011;62585;49.706;18.216;2023-10-19T13:39:11;10.15;;;6.75;;
74223;SDS011;62585;49.706;18.216;2023-10-19T13:41:42;12.57;;;6.65;;
74223;SDS011;62585;49.706;18.216;2023-10-19T13:46:35;12.95;;;7.20;;
74223;SDS011;62585;49.706;18.216;2023-10-19T13:49:01;13.88;;;7.60;;
74223;SDS011;62585;49.706;18.216;2023-10-19T13:51:29;10.57;;;7.15;;
74223;SDS011;62585;49.706;18.216;2023-10-19T13:53:55;13.10;;;7.05;;
74223;SDS011;62585;49.706;18.216;2023-10-19T13:56:21;11.07;;;6.80;;
74223;SDS011;62585;49.706;18.216;2023-10-19T13:58:47;11.00;;;7.13;;
74223;SDS011;62585;49.706;18.216;2023-10-19T14:01:15;10.63;;;7.15;;
74223;SDS011;62585;49.706;18.216;2023-10-19T14:03:41;13.07;;;7.15;;
74223;SDS011;62585;49.706;18.216;2023-10-19T14:06:14;15.02;;;8.00;;
74223;SDS011;62585;49.706;18.216;2023-10-19T14:08:40;13.57;;;7.40;;
74223;SDS011;62585;49.706;18.216;2023-10-19T14:11:06;13.38;;;8.00;;
74223;SDS011;62585;49.706;18.216;2023-10-19T14:13:33;11.95;;;7.38;;
74223;SDS011;62585;49.706;18.216;2023-10-19T14:15:59;17.15;;;8.40;;
74223;SDS011;62585;49.706;18.216;2023-10-19T14:18:25;10.95;;;7.07;;
74223;SDS011;62585;49.706;18.216;2023-10-19T14:20:50;13.05;;;7.03;;
74223;SDS011;62585;49.706;18.216;2023-10-19T14:23:16;10.80;;;6.82;;
74223;SDS011;62585;49.706;18.216;2023-10-19T14:25:42;12.98;;;8.05;;
74223;SDS011;62585;49.706;18.216;2023-10-19T14:30:35;23.45;;;12.00;;
74223;SDS011;62585;49.706;18.216;2023-10-19T14:33:03;28.58;;;13.70;;
74223;SDS011;62585;49.706;18.216;2023-10-19T14:35:45;38.05;;;16.42;;
74223;SDS011;62585;49.706;18.216;2023-10-19T14:40:43;32.08;;;14.00;;
74223;SDS011;62585;49.706;18.216;2023-10-19T14:43:13;31.23;;;15.13;;
74223;SDS011;62585;49.706;18.216;2023-10-19T14:45:40;31.23;;;15.68;;
74223;SDS011;62585;49.706;18.216;2023-10-19T14:48:07;36.30;;;18.75;;
74223;SDS011;62585;49.706;18.216;2023-10-19T14:50:37;27.90;;;13.93;;
74223;SDS011;62585;49.706;18.216;2023-10-19T14:53:03;21.10;;;10.55;;
74223;SDS011;62585;49.706;18.216;2023-10-19T14:55:29;16.08;;;8.93;;
74223;SDS011;62585;49.706;18.216;2023-10-19T14:57:55;24.42;;;12.68;;
74223;SDS011;62585;49.706;18.216;2023-10-19T15:00:22;19.63;;;10.95;;
74223;SDS011;62585;49.706;18.216;2023-10-19T15:02:51;24.17;;;13.95;;
74223;SDS011;62585;49.706;18.216;2023-10-19T15:05:21;26.17;;;14.52;;
74223;SDS011;62585;49.706;18.216;2023-10-19T15:07:50;31.48;;;16.70;;
74223;SDS011;62585;49.706;18.216;2023-10-19T15:10:22;16.80;;;9.73;;
74223;SDS011;62585;49.706;18.216;2023-10-19T15:12:50;19.10;;;10.85;;